Time;durP1;ratioP1;P1;durP2;ratioP2;P2;SDS_P1;SDS_P2;PMS_P1;PMS_P2;Temp;Humidity;BMP_temperature;BMP_pressure;BME280_temperature;BME280_humidity;BME280_pressure;Samples;Min_cycle;Max_cycle;Signal;HPM_P1;HPM_P2
2023/09/10 00:02:15;;;;;;;10.03;8.60;;;;;;;;;;6215946;28;20275;-70
2023/09/10 00:05:16;;;;;;;9.60;8.73;;;;;;;;;;6203329;28;20219;-70
2023/09/10 00:08:18;;;;;;;8.93;8.03;;;;;;;;;;6213193;28;20206;-70
2023/09/10 00:11:19;;;;;;;10.07;9.07;;;;;;;;;;6203313;28;20194;-70
2023/09/10 00:14:20;;;;;;;10.40;9.43;;;;;;;;;;6203020;28;20191;-70
2023/09/10 00:17:21;;;;;;;10.07;9.17;;;;;;;;;;6217339;28;20206;-70
2023/09/10 00:20:22;;;;;;;9.40;8.50;;;;;;;;;;6206069;28;20203;-70
2023/09/10 00:23:23;;;;;;;9.77;8.77;;;;;;;;;;6200761;28;20327;-70
2023/09/10 00:26:26;;;;;;;9.90;8.90;;;;;;;;;;6206881;28;20219;-70
2023/09/10 00:29:27;;;;;;;9.40;8.60;;;;;;;;;;6200471;28;20279;-70
2023/09/10 00:32:28;;;;;;;9.83;8.93;;;;;;;;;;6197160;28;20199;-70
2023/09/10 00:35:29;;;;;;;9.90;8.90;;;;;;;;;;6211729;28;20230;-70
2023/09/10 00:38:30;;;;;;;9.53;8.63;;;;;;;;;;6198119;28;20253;-70
2023/09/10 00:41:31;;;;;;;10.03;9.13;;;;;;;;;;6206619;28;20205;-70
2023/09/10 00:44:36;;;;;;;9.87;8.87;;;18.30;74.40;;;;;;6207142;28;20238;-70
2023/09/10 00:47:44;;;;;;;9.67;8.77;;;16.20;81.60;;;;;;6184829;28;20248;-70
2023/09/10 00:50:45;;;;;;;11.00;9.37;;;16.10;81.70;;;;;;6219825;28;20185;-70
2023/09/10 00:53:46;;;;;;;12.60;9.60;;;16.10;81.80;;;;;;6187652;28;20214;-70
2023/09/10 00:56:47;;;;;;;10.37;9.27;;;16.10;81.80;;;;;;6185059;28;20202;-70
2023/09/10 00:59:47;;;;;;;9.83;8.83;;;16.10;82.00;;;;;;6184684;28;20237;-70
2023/09/10 01:02:49;;;;;;;10.47;9.40;;;16.10;81.70;;;;;;6180567;28;20231;-70
2023/09/10 01:05:50;;;;;;;9.17;8.33;;;16.10;81.80;;;;;;6236419;28;20215;-70
2023/09/10 01:08:50;;;;;;;9.67;8.80;;;16.10;81.80;;;;;;6198977;28;20191;-70
2023/09/10 01:12:33;;;;;;;10.07;8.77;;;16.00;82.00;;;;;;6174593;28;20265;-70
2023/09/10 01:15:38;;;;;;;11.07;10.00;;;16.00;81.90;;;;;;6203236;28;20192;-70
2023/09/10 01:18:49;;;;;;;10.17;9.30;;;16.00;82.40;;;;;;6214292;28;20218;-70
2023/09/10 01:22:00;;;;;;;11.27;9.07;;;16.00;81.60;;;;;;6192316;28;20502;-70
2023/09/10 01:25:02;;;;;;;10.10;9.10;;;16.00;81.90;;;;;;6222460;28;20322;-70
2023/09/10 01:28:03;;;;;;;9.60;8.70;;;16.00;81.90;;;;;;6223723;28;20187;-70
2023/09/10 01:31:04;;;;;;;10.57;9.57;;;15.90;82.10;;;;;;6218904;28;20245;-70
2023/09/10 01:34:08;;;;;;;10.20;9.30;;;15.80;82.30;;;;;;6213989;28;20199;-70
2023/09/10 01:37:18;;;;;;;10.70;9.33;;;15.80;82.00;;;;;;6222807;28;20195;-70
2023/09/10 01:40:25;;;;;;;10.90;9.60;;;15.80;82.20;;;;;;6209260;28;20193;-70
2023/09/10 01:43:26;;;;;;;11.17;9.50;;;15.80;82.60;;;;;;6214937;28;20227;-70
2023/09/10 01:46:27;;;;;;;9.70;8.70;;;15.80;82.60;;;;;;6206473;28;20212;-70
2023/09/10 01:49:28;;;;;;;10.30;9.03;;;15.80;82.40;;;;;;6210942;28;20198;-70
2023/09/10 01:52:29;;;;;;;10.07;9.10;;;15.80;82.30;;;;;;6206630;28;20196;-70
2023/09/10 01:55:30;;;;;;;10.20;9.20;;;15.70;82.50;;;;;;6180629;28;20206;-70
2023/09/10 01:58:30;;;;;;;10.63;9.60;;;15.70;82.60;;;;;;6195125;28;20203;-70
2023/09/10 02:01:31;;;;;;;11.50;9.10;;;15.60;82.50;;;;;;6188195;28;20203;-70
2023/09/10 02:04:32;;;;;;;10.53;9.43;;;15.60;82.20;;;;;;6220975;28;20259;-70
2023/09/10 02:07:33;;;;;;;15.70;8.80;;;15.60;82.00;;;;;;6192392;28;20265;-70
2023/09/10 02:10:35;;;;;;;10.37;9.37;;;15.60;82.00;;;;;;6205371;28;20216;-70
2023/09/10 02:13:36;;;;;;;9.60;8.70;;;15.60;82.20;;;;;;6222007;28;20198;-70
2023/09/10 02:16:37;;;;;;;9.77;8.80;;;15.50;82.50;;;;;;6199217;28;20203;-70
2023/09/10 02:19:37;;;;;;;10.73;9.70;;;15.50;82.50;;;;;;6194509;28;20283;-70
2023/09/10 02:22:39;;;;;;;10.03;9.00;;;15.50;82.60;;;;;;6203358;28;20229;-70
2023/09/10 02:25:40;;;;;;;9.47;8.67;;;15.40;82.70;;;;;;6194016;28;20228;-69
2023/09/10 02:28:41;;;;;;;9.83;8.87;;;15.40;82.40;;;;;;6203675;28;20235;-69
2023/09/10 02:31:41;;;;;;;10.30;9.40;;;15.40;82.70;;;;;;6207444;28;20196;-69
2023/09/10 02:34:42;;;;;;;10.07;9.10;;;15.30;82.60;;;;;;6210154;28;20281;-69
2023/09/10 02:37:43;;;;;;;10.37;9.37;;;15.30;82.70;;;;;;6203486;28;20199;-70
2023/09/10 02:40:43;;;;;;;10.60;9.60;;;15.30;82.80;;;;;;6207886;28;20558;-69
2023/09/10 02:43:44;;;;;;;10.50;9.50;;;15.30;83.00;;;;;;6188613;28;20253;-69
2023/09/10 02:46:45;;;;;;;11.10;9.80;;;15.30;83.10;;;;;;6192461;28;20210;-69
2023/09/10 02:49:45;;;;;;;9.83;8.83;;;15.20;83.10;;;;;;6185678;28;20188;-69
2023/09/10 02:52:46;;;;;;;11.43;8.97;;;15.20;83.30;;;;;;6197331;28;20235;-69
2023/09/10 02:55:47;;;;;;;11.03;9.83;;;15.20;83.00;;;;;;6190011;28;20233;-70
2023/09/10 02:58:48;;;;;;;11.37;9.77;;;15.20;83.50;;;;;;6204506;28;20192;-69
2023/09/10 03:01:48;;;;;;;10.97;10.00;;;15.20;83.20;;;;;;6190966;28;20189;-69
2023/09/10 03:04:49;;;;;;;10.40;9.50;;;15.20;83.50;;;;;;6212329;28;20192;-69
2023/09/10 03:07:51;;;;;;;11.77;10.67;;;15.20;83.40;;;;;;6201786;28;20298;-69
2023/09/10 03:10:52;;;;;;;11.00;10.00;;;15.10;83.60;;;;;;6203560;28;20187;-69
2023/09/10 03:13:53;;;;;;;10.63;9.63;;;15.10;83.50;;;;;;6218442;28;21040;-69
2023/09/10 03:16:53;;;;;;;11.10;10.20;;;15.10;83.30;;;;;;6240962;28;20192;-69
2023/09/10 03:19:54;;;;;;;10.23;9.33;;;15.00;83.50;;;;;;6207612;28;20200;-69
2023/09/10 03:22:58;;;;;;;10.47;9.50;;;15.00;83.30;;;;;;6222295;28;20333;-69
2023/09/10 03:25:59;;;;;;;12.00;9.90;;;15.00;83.60;;;;;;6181243;28;20212;-69
2023/09/10 03:29:00;;;;;;;11.03;9.87;;;15.00;83.40;;;;;;6204513;28;20263;-69
2023/09/10 03:32:03;;;;;;;13.57;10.70;;;15.00;83.40;;;;;;6201370;28;20284;-69
2023/09/10 03:35:05;;;;;;;11.13;9.83;;;15.00;83.40;;;;;;6225421;28;20184;-69
2023/09/10 03:38:05;;;;;;;12.37;9.50;;;15.00;83.20;;;;;;6196578;28;20198;-69
2023/09/10 03:41:06;;;;;;;10.43;9.43;;;15.00;83.60;;;;;;6181898;28;20223;-69
2023/09/10 03:44:06;;;;;;;11.73;10.23;;;14.90;83.30;;;;;;6200796;28;20218;-69
2023/09/10 03:47:07;;;;;;;10.17;9.17;;;15.00;83.50;;;;;;6207340;28;20204;-69
2023/09/10 03:50:11;;;;;;;10.67;9.70;;;15.00;83.20;;;;;;6208939;28;20195;-70
2023/09/10 03:53:11;;;;;;;10.37;9.37;;;14.90;83.00;;;;;;6187043;28;20197;-69
2023/09/10 03:56:12;;;;;;;10.37;9.47;;;14.90;83.50;;;;;;6200761;28;20197;-72
2023/09/10 03:59:12;;;;;;;10.83;9.67;;;14.90;83.60;;;;;;6172570;28;20279;-73
2023/09/10 04:02:13;;;;;;;10.50;9.40;;;14.80;83.70;;;;;;6192939;28;20217;-72
2023/09/10 04:05:14;;;;;;;10.60;9.70;;;14.90;84.00;;;;;;6189536;28;20306;-72
2023/09/10 04:08:15;;;;;;;11.00;9.97;;;14.90;83.90;;;;;;6196513;28;20218;-71
2023/09/10 04:11:16;;;;;;;11.23;10.13;;;14.80;83.50;;;;;;6193852;28;20258;-71
2023/09/10 04:14:17;;;;;;;11.47;10.47;;;14.80;83.90;;;;;;6201328;28;20192;-72
2023/09/10 04:17:18;;;;;;;10.47;9.37;;;14.80;83.90;;;;;;6193922;28;20198;-72
2023/09/10 04:20:20;;;;;;;10.70;9.67;;;14.80;83.90;;;;;;6205927;28;20214;-72
2023/09/10 04:23:21;;;;;;;11.57;10.47;;;14.80;83.80;;;;;;6191057;28;20323;-72
2023/09/10 04:26:22;;;;;;;11.33;9.53;;;14.80;84.10;;;;;;6183273;28;20207;-72
2023/09/10 04:29:24;;;;;;;10.73;9.73;;;14.80;84.10;;;;;;6180316;28;20196;-72
2023/09/10 04:32:25;;;;;;;10.50;9.60;;;14.80;84.00;;;;;;6185631;28;20275;-72
2023/09/10 04:35:26;;;;;;;13.67;9.07;;;14.70;84.00;;;;;;6196876;28;20196;-72
2023/09/10 04:38:26;;;;;;;10.87;9.83;;;14.70;84.00;;;;;;6197725;28;20202;-71
2023/09/10 04:41:27;;;;;;;10.30;9.20;;;14.70;83.90;;;;;;6213496;28;20199;-73
2023/09/10 04:44:28;;;;;;;11.30;10.13;;;14.70;84.00;;;;;;6179299;28;20252;-72
2023/09/10 04:47:28;;;;;;;10.97;10.00;;;14.70;84.00;;;;;;6177548;28;20215;-72
2023/09/10 04:50:29;;;;;;;11.70;10.50;;;14.70;84.00;;;;;;6195087;28;20190;-73
2023/09/10 04:53:30;;;;;;;11.27;10.07;;;14.70;84.70;;;;;;6209859;28;20196;-72
2023/09/10 04:56:31;;;;;;;11.60;10.60;;;14.70;84.30;;;;;;6179996;28;20265;-72
2023/09/10 04:59:33;;;;;;;11.43;10.30;;;14.70;84.50;;;;;;6206462;28;21074;-72
2023/09/10 05:02:33;;;;;;;11.63;10.63;;;14.70;84.50;;;;;;6210764;28;20199;-72
2023/09/10 05:05:34;;;;;;;11.27;10.27;;;14.70;84.70;;;;;;6187546;28;20223;-72
2023/09/10 05:08:35;;;;;;;13.47;10.90;;;14.70;84.50;;;;;;6184143;28;20195;-74
2023/09/10 05:11:36;;;;;;;11.67;10.53;;;14.70;84.40;;;;;;6198652;28;20195;-72
2023/09/10 05:14:37;;;;;;;11.50;10.47;;;14.70;84.10;;;;;;6210645;28;20182;-72
2023/09/10 05:17:38;;;;;;;13.93;10.80;;;14.70;84.10;;;;;;6183198;28;20259;-73
2023/09/10 05:20:39;;;;;;;12.10;10.93;;;14.70;83.90;;;;;;6190711;28;20188;-73
2023/09/10 05:23:40;;;;;;;11.30;10.30;;;14.70;83.60;;;;;;6186938;28;20300;-72
2023/09/10 05:26:40;;;;;;;11.33;10.23;;;14.70;83.90;;;;;;6203725;28;20268;-72
2023/09/10 05:29:41;;;;;;;10.70;9.77;;;14.70;83.90;;;;;;6177878;28;20197;-73
2023/09/10 05:32:42;;;;;;;11.43;10.33;;;14.70;84.10;;;;;;6189726;28;20202;-73
2023/09/10 05:35:43;;;;;;;11.40;10.30;;;14.70;84.30;;;;;;6198261;28;20190;-74
2023/09/10 05:38:44;;;;;;;11.73;10.63;;;14.80;84.20;;;;;;6215399;28;20199;-72
2023/09/10 05:41:45;;;;;;;11.13;10.13;;;14.80;84.30;;;;;;6195413;28;20195;-73
2023/09/10 05:44:45;;;;;;;12.00;10.90;;;14.80;84.30;;;;;;6192829;28;20192;-73
2023/09/10 05:47:46;;;;;;;11.07;9.93;;;14.80;84.30;;;;;;6207770;28;20238;-73
2023/09/10 05:50:47;;;;;;;11.63;10.53;;;14.80;84.80;;;;;;6194934;28;20197;-73
2023/09/10 05:53:47;;;;;;;12.00;11.00;;;14.80;84.80;;;;;;6202885;28;20219;-73
2023/09/10 05:56:48;;;;;;;10.57;9.67;;;14.80;85.20;;;;;;6198943;28;20202;-72
2023/09/10 05:59:49;;;;;;;12.30;11.17;;;14.90;85.80;;;;;;6201896;28;20288;-72
2023/09/10 06:02:51;;;;;;;11.87;10.77;;;15.00;86.20;;;;;;6211442;28;20200;-72
2023/09/10 06:05:52;;;;;;;11.20;10.20;;;15.00;86.20;;;;;;6208587;28;20243;-72
2023/09/10 06:08:52;;;;;;;12.17;10.97;;;15.20;86.10;;;;;;6202368;28;20198;-73
2023/09/10 06:11:53;;;;;;;12.20;11.10;;;15.20;86.30;;;;;;6188308;28;20195;-73
2023/09/10 06:14:54;;;;;;;13.87;12.50;;;15.30;86.60;;;;;;6192583;28;20186;-73
2023/09/10 06:17:55;;;;;;;11.83;10.63;;;15.30;86.70;;;;;;6198174;28;20286;-73
2023/09/10 06:20:55;;;;;;;12.60;11.30;;;15.40;86.80;;;;;;6197916;28;20194;-65
2023/09/10 06:23:56;;;;;;;12.60;11.27;;;15.40;86.60;;;;;;6185831;28;20244;-65
2023/09/10 06:26:57;;;;;;;12.27;10.97;;;15.50;86.50;;;;;;6202321;28;20254;-65
2023/09/10 06:29:57;;;;;;;12.80;11.57;;;15.50;86.80;;;;;;6193878;28;20196;-66
2023/09/10 06:32:58;;;;;;;14.27;12.37;;;15.50;86.80;;;;;;6207934;28;20202;-66
2023/09/10 06:35:59;;;;;;;12.20;11.07;;;15.60;86.90;;;;;;6196938;28;20203;-65
2023/09/10 06:39:00;;;;;;;13.77;12.47;;;15.60;86.80;;;;;;6182435;28;20198;-67
2023/09/10 06:42:00;;;;;;;14.27;12.60;;;15.60;86.60;;;;;;6205612;28;20192;-67
2023/09/10 06:45:01;;;;;;;12.40;11.30;;;15.70;87.40;;;;;;6206406;28;20195;-64
2023/09/10 06:48:02;;;;;;;14.03;12.73;;;15.80;87.30;;;;;;6201744;28;20195;-65
2023/09/10 06:51:03;;;;;;;12.10;11.00;;;15.80;86.70;;;;;;6194212;28;20263;-65
2023/09/10 06:54:04;;;;;;;13.17;11.87;;;15.80;86.50;;;;;;6199325;28;20189;-64
2023/09/10 06:57:04;;;;;;;13.30;11.73;;;15.80;86.20;;;;;;6197246;28;20205;-65
2023/09/10 07:00:06;;;;;;;13.10;11.80;;;15.90;86.60;;;;;;6174065;28;20199;-65
2023/09/10 07:03:08;;;;;;;14.07;11.20;;;16.00;86.60;;;;;;6213166;28;20342;-67
2023/09/10 07:06:08;;;;;;;13.10;11.90;;;16.00;86.20;;;;;;6192452;28;20227;-68
2023/09/10 07:09:10;;;;;;;12.63;11.43;;;16.00;86.40;;;;;;6208530;28;20203;-67
2023/09/10 07:12:11;;;;;;;13.23;11.97;;;16.10;86.20;;;;;;6203388;28;20289;-67
2023/09/10 07:15:12;;;;;;;13.03;11.73;;;16.10;86.60;;;;;;6189207;28;20196;-67
2023/09/10 07:18:12;;;;;;;13.47;12.17;;;16.20;86.60;;;;;;6178137;28;20261;-67
2023/09/10 07:21:13;;;;;;;12.77;11.50;;;16.20;86.80;;;;;;6198174;28;20202;-67
2023/09/10 07:24:14;;;;;;;12.47;11.27;;;16.30;86.80;;;;;;6206110;28;20235;-67
2023/09/10 07:27:14;;;;;;;13.23;11.93;;;16.40;86.80;;;;;;6197868;28;20212;-67
2023/09/10 07:30:15;;;;;;;12.70;11.50;;;16.40;86.50;;;;;;6206514;28;20254;-67
2023/09/10 07:33:16;;;;;;;13.83;10.90;;;16.50;86.80;;;;;;6188960;28;20195;-67
2023/09/10 07:36:16;;;;;;;12.67;11.37;;;16.50;87.10;;;;;;6193327;28;20200;-67
2023/09/10 07:39:41;;;;;;;12.17;11.13;;;16.60;86.90;;;;;;6200007;28;20274;-67
2023/09/10 07:42:41;;;;;;;13.13;11.77;;;16.60;87.20;;;;;;6218707;28;20234;-67
2023/09/10 07:45:45;;;;;;;14.27;12.50;;;16.70;87.30;;;;;;6189105;28;20211;-67
2023/09/10 07:48:46;;;;;;;13.77;12.47;;;16.80;87.20;;;;;;6212525;28;20246;-67
2023/09/10 07:51:46;;;;;;;13.70;12.40;;;16.80;87.30;;;;;;6223030;28;20243;-67
2023/09/10 07:54:48;;;;;;;14.20;12.70;;;16.90;86.40;;;;;;6203569;28;20307;-67
2023/09/10 07:57:49;;;;;;;14.97;13.23;;;16.90;86.90;;;;;;6198543;28;20191;-67
2023/09/10 08:00:56;;;;;;;13.80;12.17;;;17.00;86.20;;;;;;6201006;28;20188;-67
2023/09/10 08:03:57;;;;;;;12.80;11.70;;;17.10;86.50;;;;;;6200407;28;20188;-67
2023/09/10 08:07:00;;;;;;;13.83;12.43;;;17.20;86.20;;;;;;6193801;28;20222;-67
2023/09/10 08:10:01;;;;;;;14.20;12.40;;;17.20;85.70;;;;;;6208172;28;20199;-67
2023/09/10 08:13:03;;;;;;;13.53;12.13;;;17.40;85.20;;;;;;6234671;28;20186;-67
2023/09/10 08:16:04;;;;;;;13.03;11.83;;;17.50;84.60;;;;;;6200171;28;20246;-67
2023/09/10 08:19:05;;;;;;;12.37;11.13;;;17.60;83.40;;;;;;6189546;28;20192;-67
2023/09/10 08:22:06;;;;;;;13.27;12.17;;;17.60;84.20;;;;;;6183752;28;20245;-67
2023/09/10 08:25:08;;;;;;;13.13;11.83;;;17.80;83.40;;;;;;6199743;28;20234;-67
2023/09/10 08:28:09;;;;;;;12.70;11.40;;;17.80;83.50;;;;;;6184668;28;20189;-67
2023/09/10 08:31:09;;;;;;;12.60;11.50;;;17.80;83.20;;;;;;6188675;28;20180;-67
2023/09/10 08:34:10;;;;;;;12.57;11.50;;;17.80;82.80;;;;;;6179522;28;20195;-67
2023/09/10 08:37:11;;;;;;;13.07;11.97;;;18.00;82.60;;;;;;6178205;28;20207;-67
2023/09/10 08:40:12;;;;;;;13.07;11.70;;;18.00;82.30;;;;;;6177902;28;20200;-67
2023/09/10 08:43:17;;;;;;;11.70;10.70;;;18.10;81.80;;;;;;6219112;28;20191;-67
2023/09/10 08:46:22;;;;;;;11.97;10.27;;;18.10;80.30;;;;;;6213935;28;20219;-67
2023/09/10 08:49:26;;;;;;;11.13;10.03;;;18.40;78.60;;;;;;6222768;28;20188;-67
2023/09/10 08:52:27;;;;;;;11.57;10.40;;;18.50;78.20;;;;;;6221730;28;20185;-67
2023/09/10 08:55:29;;;;;;;11.57;10.47;;;;;;;;;;6201493;28;20199;-67
2023/09/10 08:58:32;;;;;;;11.30;10.20;;;18.60;77.70;;;;;;6213353;28;20268;-67
2023/09/10 09:01:33;;;;;;;11.03;9.93;;;18.90;77.60;;;;;;6211312;28;20196;-67
2023/09/10 09:04:33;;;;;;;10.97;10.07;;;18.90;77.80;;;;;;6199760;28;20290;-67
2023/09/10 09:07:45;;;;;;;10.70;9.80;;;19.00;78.40;;;;;;6201469;28;20214;-67
2023/09/10 09:10:47;;;;;;;11.83;10.43;;;;;;;;;;6223269;28;20226;-67
2023/09/10 09:13:49;;;;;;;11.77;10.77;;;;;;;;;;6209266;28;20241;-67
2023/09/10 09:16:52;;;;;;;10.97;9.73;;;;;;;;;;6216108;28;20283;-67
2023/09/10 09:19:54;;;;;;;10.83;9.83;;;;;;;;;;6203323;28;20187;-67
2023/09/10 09:23:06;;;;;;;10.90;10.00;;;24.00;50.00;;;;;;6222852;28;20230;-67
2023/09/10 09:26:09;;;;;;;10.73;9.57;;;19.70;74.10;;;;;;6224948;28;20223;-67
2023/09/10 09:29:10;;;;;;;10.60;9.70;;;19.80;73.80;;;;;;6223778;28;20195;-67
2023/09/10 09:32:11;;;;;;;10.73;9.50;;;19.90;73.40;;;;;;6208245;28;20187;-67
2023/09/10 09:35:11;;;;;;;10.90;10.00;;;20.00;73.60;;;;;;6170177;28;20238;-67
2023/09/10 09:38:15;;;;;;;9.97;9.17;;;20.00;73.60;;;;;;6198634;28;20193;-67
2023/09/10 09:41:17;;;;;;;10.60;9.70;;;20.10;71.80;;;;;;6200148;28;20188;-67
2023/09/10 09:44:19;;;;;;;11.70;10.50;;;20.20;72.10;;;;;;6198205;28;20196;-67
2023/09/10 09:47:19;;;;;;;12.37;10.10;;;20.30;72.30;;;;;;6217983;28;20327;-67
2023/09/10 09:50:20;;;;;;;10.10;9.20;;;20.30;71.50;;;;;;6186865;28;20189;-67
2023/09/10 09:53:29;;;;;;;11.80;10.43;;;20.60;70.10;;;;;;6195776;28;20183;-67
2023/09/10 09:56:29;;;;;;;10.40;9.50;;;20.70;71.20;;;;;;6200934;28;20290;-67
2023/09/10 09:59:36;;;;;;;12.03;9.40;;;20.80;70.50;;;;;;6181924;28;20190;-67
2023/09/10 10:02:38;;;;;;;9.83;9.00;;;;;;;;;;6223111;28;20187;-67
2023/09/10 10:05:39;;;;;;;12.30;9.37;;;;;;;;;;6207262;28;20307;-67
2023/09/10 10:08:48;;;;;;;9.67;8.77;;;;;;;;;;6214528;28;20282;-67
2023/09/10 10:11:49;;;;;;;10.10;9.20;;;;;;;;;;6233093;28;20215;-67
2023/09/10 10:14:51;;;;;;;9.60;8.63;;;;;;;;;;6216104;28;20187;-67
2023/09/10 10:17:52;;;;;;;9.50;8.70;;;;;;;;;;6220803;28;20198;-67
2023/09/10 10:20:53;;;;;;;9.40;8.60;;;;;;;;;;6203916;28;20195;-67
2023/09/10 10:23:56;;;;;;;9.70;8.77;;;;;;;;;;6201381;28;20264;-67
2023/09/10 10:26:58;;;;;;;9.60;8.70;;;;;;;;;;6202359;28;20220;-67
2023/09/10 10:29:59;;;;;;;9.27;8.37;;;;;;;;;;6204480;28;20202;-67
2023/09/10 10:33:01;;;;;;;10.30;9.23;;;;;;;;;;6233166;28;20280;-67
2023/09/10 10:36:02;;;;;;;8.73;7.90;;;;;;;;;;6215839;28;20195;-67
2023/09/10 10:39:10;;;;;;;9.17;8.27;;;;;;;;;;6226809;28;20222;-67
2023/09/10 10:42:13;;;;;;;9.30;8.40;;;;;;;;;;6210927;28;20310;-67
2023/09/10 10:45:18;;;;;;;8.90;8.10;;;;;;;;;;6220991;28;20184;-67
2023/09/10 10:48:25;;;;;;;8.70;8.00;;;;;;;;;;6202942;28;20234;-67
2023/09/10 10:51:26;;;;;;;8.27;7.57;;;;;;;;;;6210478;28;20217;-67
2023/09/10 10:54:28;;;;;;;8.47;7.67;;;21.20;68.00;;;;;;6220819;28;20196;-67
2023/09/10 10:57:29;;;;;;;8.03;7.23;;;22.30;64.10;;;;;;6178075;28;20190;-67
2023/09/10 11:00:30;;;;;;;8.27;7.57;;;22.30;64.00;;;;;;6226357;28;20194;-67
2023/09/10 11:03:34;;;;;;;7.80;7.13;;;22.50;62.10;;;;;;6208804;28;20199;-67
2023/09/10 11:07:13;;;;;;;8.07;7.37;;;22.60;59.80;;;;;;6209286;28;20215;-67
2023/09/10 11:10:29;;;;;;;7.93;7.23;;;22.80;60.70;;;;;;6225524;28;20183;-67
2023/09/10 11:13:32;;;;;;;8.47;7.77;;;22.90;61.50;;;;;;6221836;28;20195;-67
2023/09/10 11:16:42;;;;;;;8.30;7.60;;;22.90;63.10;;;;;;6221438;28;20276;-66
2023/09/10 11:19:45;;;;;;;7.93;7.13;;;23.00;62.40;;;;;;6237524;28;20195;-67
2023/09/10 11:23:07;;;;;;;8.30;7.60;;;23.10;61.80;;;;;;6225618;28;20252;-67
2023/09/10 11:26:13;;;;;;;7.90;7.10;;;23.10;61.40;;;;;;6219555;28;20216;-67
2023/09/10 11:29:16;;;;;;;7.93;7.20;;;;;;;;;;6233724;28;20199;-67
2023/09/10 11:32:17;;;;;;;9.93;7.63;;;;;;;;;;6209165;28;20195;-67
2023/09/10 11:35:18;;;;;;;8.43;7.53;;;23.20;59.40;;;;;;6203097;28;20189;-67
2023/09/10 11:38:20;;;;;;;8.07;7.27;;;23.80;60.10;;;;;;6238461;28;20262;-67
2023/09/10 11:41:21;;;;;;;6.80;6.20;;;;;;;;;;6188734;28;20191;-67
2023/09/10 11:44:24;;;;;;;7.90;7.23;;;;;;;;;;6212410;28;20211;-67
2023/09/10 11:47:29;;;;;;;7.53;6.87;;;;;;;;;;6207194;28;20207;-66
2023/09/10 11:50:30;;;;;;;7.20;6.60;;;23.90;60.30;;;;;;6207446;28;20226;-67
2023/09/10 11:53:31;;;;;;;7.33;6.43;;;;;;;;;;6192448;28;20191;-67
2023/09/10 11:56:33;;;;;;;6.87;6.37;;;24.50;59.30;;;;;;6208259;28;20262;-67
2023/09/10 11:59:34;;;;;;;6.40;5.90;;;;;;;;;;6191588;28;20199;-67
2023/09/10 12:02:36;;;;;;;6.90;6.30;;;;;;;;;;6208660;28;20197;-67
2023/09/10 12:05:37;;;;;;;6.73;6.03;;;25.00;54.80;;;;;;6213635;28;20218;-67
2023/09/10 12:08:38;;;;;;;7.23;6.57;;;;;;;;;;6191553;28;20192;-67
2023/09/10 12:11:40;;;;;;;7.33;5.77;;;;;;;;;;6222876;28;20196;-67
2023/09/10 12:14:41;;;;;;;6.87;6.07;;;25.60;55.00;;;;;;6219133;28;20184;-67
2023/09/10 12:17:42;;;;;;;6.17;4.90;;;;;;;;;;6208138;28;20205;-65
2023/09/10 12:20:44;;;;;;;5.50;4.97;;;;;;;;;;6189715;28;20198;-65
2023/09/10 12:23:45;;;;;;;5.27;4.83;;;33.30;41.10;;;;;;6216777;28;20241;-65
2023/09/10 12:26:46;;;;;;;5.57;5.07;;;;;;;;;;6206397;28;20240;-66
2023/09/10 12:29:47;;;;;;;5.95;4.57;;;;;;;;;;6203445;28;20724;-65
2023/09/10 12:32:48;;;;;;;11.68;4.75;;;;;;;;;;6206591;28;20229;-65
2023/09/10 12:35:50;;;;;;;4.65;4.18;;;37.30;36.20;;;;;;6207877;28;20201;-66
2023/09/10 12:38:51;;;;;;;4.63;4.07;;;41.20;30.70;;;;;;6215569;28;20277;-65
2023/09/10 12:41:53;;;;;;;4.40;4.10;;;;;;;;;;6195950;28;20257;-65
2023/09/10 12:44:54;;;;;;;4.10;3.88;;;;;;;;;;6213513;28;20187;-65
2023/09/10 12:47:55;;;;;;;4.25;3.95;;;;;;;;;;6201975;28;20214;-65
2023/09/10 12:50:57;;;;;;;5.45;5.00;;;;;;;;;;6211967;28;20191;-65
2023/09/10 12:53:58;;;;;;;4.72;4.43;;;41.50;31.10;;;;;;6201175;28;20213;-66
2023/09/10 12:57:03;;;;;;;5.47;4.70;;;37.20;34.40;;;;;;6211653;28;20187;-65
2023/09/10 13:00:05;;;;;;;5.72;5.05;;;37.30;34.70;;;;;;6203654;28;20191;-64
2023/09/10 13:03:07;;;;;;;5.13;4.63;;;38.30;32.70;;;;;;6189970;28;20191;-65
2023/09/10 13:06:08;;;;;;;5.22;4.72;;;;;;;;;;6187731;28;20202;-65
2023/09/10 13:09:09;;;;;;;5.00;4.60;;;;;;;;;;6205198;28;20202;-65
2023/09/10 13:12:10;;;;;;;4.90;4.60;;;;;;;;;;6195775;28;20207;-65
2023/09/10 13:15:14;;;;;;;4.75;4.43;;;;;;;;;;6208141;28;20182;-66
2023/09/10 13:18:16;;;;;;;5.95;4.40;;;;;;;;;;6204977;28;20253;-65
2023/09/10 13:21:20;;;;;;;4.47;4.18;;;;;;;;;;6202536;28;20190;-67
2023/09/10 13:24:21;;;;;;;4.10;3.80;;;;;;;;;;6199432;28;20243;-66
2023/09/10 13:27:22;;;;;;;4.85;4.38;;;;;;;;;;6194488;28;20246;-65
2023/09/10 13:30:24;;;;;;;4.25;3.95;;;;;;;;;;6214366;28;20179;-65
2023/09/10 13:33:25;;;;;;;4.22;3.92;;;;;;;;;;6216533;28;20183;-65
2023/09/10 13:36:26;;;;;;;5.00;4.60;;;;;;;;;;6212948;28;20245;-65
2023/09/10 13:39:28;;;;;;;4.70;4.40;;;;;;;;;;6203913;28;20192;-67
2023/09/10 13:42:29;;;;;;;4.25;3.85;;;;;;;;;;6212581;28;20201;-65
2023/09/10 13:45:30;;;;;;;4.57;3.97;;;;;;;;;;6209371;28;20198;-65
2023/09/10 13:48:32;;;;;;;4.20;3.80;;;;;;;;;;6205607;28;20187;-65
2023/09/10 13:51:33;;;;;;;4.47;3.83;;;;;;;;;;6209437;28;20186;-65
2023/09/10 13:54:34;;;;;;;3.63;3.30;;;;;;;;;;6209707;28;20191;-65
2023/09/10 13:57:36;;;;;;;3.88;3.58;;;;;;;;;;6212279;28;20192;-66
2023/09/10 14:00:38;;;;;;;4.43;4.00;;;;;;;;;;6214299;28;20267;-67
2023/09/10 14:03:39;;;;;;;4.20;3.80;;;;;;;;;;6208760;28;20198;-65
2023/09/10 14:06:40;;;;;;;4.10;3.80;;;;;;;;;;6221265;28;20214;-66
2023/09/10 14:09:42;;;;;;;4.30;4.00;;;;;;;;;;6198256;28;20279;-66
2023/09/10 14:12:43;;;;;;;4.03;3.65;;;;;;;;;;6212150;28;20191;-66
2023/09/10 14:15:44;;;;;;;4.60;4.30;;;;;;;;;;6227024;28;20251;-66
2023/09/10 14:18:45;;;;;;;4.25;3.92;;;;;;;;;;6197020;28;20203;-65
2023/09/10 14:21:47;;;;;;;4.63;4.20;;;;;;;;;;6211128;28;20187;-66
2023/09/10 14:24:48;;;;;;;4.57;4.13;;;;;;;;;;6215572;28;20230;-65
2023/09/10 14:27:50;;;;;;;4.55;4.18;;;;;;;;;;6215748;28;20206;-67
2023/09/10 14:30:51;;;;;;;4.65;4.25;;;;;;;;;;6222661;28;20885;-66
2023/09/10 14:33:52;;;;;;;4.40;4.00;;;;;;;;;;6230467;28;20728;-64
2023/09/10 14:36:54;;;;;;;4.57;3.90;;;;;;;;;;6210634;28;20199;-64
2023/09/10 14:39:55;;;;;;;4.90;4.50;;;;;;;;;;6216595;28;20218;-64
2023/09/10 14:42:57;;;;;;;4.78;4.43;;;;;;;;;;6220166;28;20282;-65
2023/09/10 14:45:58;;;;;;;5.85;4.10;;;;;;;;;;6208704;28;20289;-64
2023/09/10 14:48:59;;;;;;;4.88;4.47;;;45.80;27.20;;;;;;6203795;28;20279;-64
2023/09/10 14:52:00;;;;;;;3.97;3.67;;;45.40;27.20;;;;;;6191493;28;20191;-65
2023/09/10 14:55:01;;;;;;;4.72;4.38;;;;;;;;;;6207749;28;20194;-64
2023/09/10 14:58:05;;;;;;;4.68;4.28;;;12.20;26.50;;;;;;6217521;28;20188;-64
2023/09/10 15:01:06;;;;;;;4.45;4.05;;;;;;;;;;6212017;28;20183;-65
2023/09/10 15:04:08;;;;;;;4.90;4.50;;;;;;;;;;6216065;28;20760;-65
2023/09/10 15:07:09;;;;;;;4.72;4.43;;;;;;;;;;6212685;28;20670;-67
2023/09/10 15:10:10;;;;;;;4.80;4.40;;;;;;;;;;6220555;28;20195;-65
2023/09/10 15:13:11;;;;;;;5.05;4.63;;;;;;;;;;6214597;28;20258;-65
2023/09/10 15:16:13;;;;;;;5.00;4.63;;;;;;;;;;6209203;28;20198;-66
2023/09/10 15:19:14;;;;;;;9.52;4.50;;;;;;;;;;6212362;28;20195;-66
2023/09/10 15:22:15;;;;;;;5.28;4.50;;;;;;;;;;6206234;28;20206;-67
2023/09/10 15:25:17;;;;;;;5.00;4.63;;;;;;;;;;6205357;28;20235;-66
2023/09/10 15:28:18;;;;;;;5.53;5.03;;;37.50;35.70;;;;;;6217901;28;20217;-65
2023/09/10 15:31:19;;;;;;;5.50;4.97;;;35.70;37.20;;;;;;6185989;28;20183;-65
2023/09/10 15:34:20;;;;;;;5.70;5.20;;;34.80;38.60;;;;;;6208746;28;20187;-65
2023/09/10 15:37:21;;;;;;;6.80;4.73;;;34.00;39.90;;;;;;6213202;28;20202;-65
2023/09/10 15:40:23;;;;;;;6.30;5.20;;;33.50;41.30;;;;;;6223537;28;20282;-65
2023/09/10 15:43:26;;;;;;;5.80;5.13;;;;;;;;;;6220147;28;20195;-65
2023/09/10 15:46:27;;;;;;;5.40;4.70;;;32.90;42.40;;;;;;6208669;28;20215;-65
2023/09/10 15:49:28;;;;;;;5.03;4.63;;;32.20;42.70;;;;;;6189216;28;20187;-64
2023/09/10 15:52:30;;;;;;;5.17;4.77;;;31.90;43.70;;;;;;6197468;28;20183;-65
2023/09/10 15:55:31;;;;;;;5.60;5.10;;;;;;;;;;6196422;28;20190;-66
2023/09/10 15:58:32;;;;;;;5.83;5.33;;;;;;;;;;6221341;28;20191;-66
2023/09/10 16:01:34;;;;;;;6.93;5.03;;;;;;;;;;6207206;28;20183;-65
2023/09/10 16:04:35;;;;;;;7.47;5.90;;;31.60;45.10;;;;;;6207606;28;20187;-65
2023/09/10 16:07:36;;;;;;;5.63;5.20;;;30.60;46.70;;;;;;6217512;28;20226;-65
2023/09/10 16:10:38;;;;;;;5.80;5.20;;;30.50;47.40;;;;;;6198720;28;20188;-66
2023/09/10 16:13:40;;;;;;;8.43;5.33;;;;;;;;;;6183194;28;20213;-65
2023/09/10 16:16:41;;;;;;;6.73;5.20;;;;;;;;;;6221715;28;20183;-65
2023/09/10 16:19:43;;;;;;;5.40;4.90;;;;;;;;;;6203672;28;20252;-68